Time;durP1;ratioP1;P1;durP2;ratioP2;P2;SDS_P1;SDS_P2;PMS_P1;PMS_P2;Temp;Humidity;BMP_temperature;BMP_pressure;BME280_temperature;BME280_humidity;BME280_pressure;Samples;Min_cycle;Max_cycle;Signal;HPM_P1;HPM_P2
2023/04/02 05:00:32;;;;;;;1.10;1.00;;;9.20;97.20;;;;;;1714990;28;20636;-63
2023/04/02 05:01:28;;;;;;;1.50;1.08;;;9.20;97.20;;;;;;1714126;28;20202;-63
2023/04/02 05:02:25;;;;;;;3.03;1.52;;;9.10;97.20;;;;;;1714677;28;20721;-63
2023/04/02 05:03:25;;;;;;;2.40;2.08;;;9.10;97.20;;;;;;1714518;28;20225;-62
2023/04/02 05:04:22;;;;;;;2.15;1.80;;;9.10;97.20;;;;;;1715035;28;20197;-63
2023/04/02 05:05:19;;;;;;;2.20;1.60;;;9.10;97.20;;;;;;1715101;28;20566;-64
2023/04/02 05:06:15;;;;;;;3.25;1.40;;;9.10;97.20;;;;;;1715053;28;20194;-63
2023/04/02 05:07:12;;;;;;;2.53;1.80;;;9.10;97.20;;;;;;1715054;28;20210;-62
2023/04/02 05:08:10;;;;;;;1.95;1.27;;;9.10;97.20;;;;;;1715086;28;20212;-63
2023/04/02 05:09:07;;;;;;;2.75;1.40;;;9.10;97.20;;;;;;1714936;28;20206;-63
2023/04/02 05:10:04;;;;;;;2.38;1.60;;;9.10;97.20;;;;;;1714975;28;20284;-64
2023/04/02 05:10:58;;;;;;;6.72;1.23;;;9.10;97.20;;;;;;1714658;28;20718;-63
2023/04/02 05:11:56;;;;;;;4.10;1.80;;;9.10;97.20;;;;;;1710781;28;20195;-63
2023/04/02 05:12:51;;;;;;;2.63;1.23;;;9.10;97.20;;;;;;1708222;28;20249;-63
2023/04/02 05:13:50;;;;;;;1.85;1.58;;;9.10;97.20;;;;;;1708325;28;20203;-64
2023/04/02 05:14:45;;;;;;;1.75;1.25;;;9.10;97.20;;;;;;1708303;28;20233;-62
2023/04/02 05:15:42;;;;;;;1.48;1.35;;;9.10;97.20;;;;;;1707650;28;20249;-63
2023/04/02 05:16:38;;;;;;;1.73;1.63;;;9.10;97.20;;;;;;1708223;28;20210;-63
2023/04/02 05:17:34;;;;;;;2.55;1.63;;;9.10;97.20;;;;;;1708258;28;20203;-63
2023/04/02 05:18:29;;;;;;;1.75;1.30;;;9.10;97.20;;;;;;1708329;28;20245;-63
2023/04/02 05:19:27;;;;;;;2.58;1.77;;;9.20;97.20;;;;;;1708270;28;20199;-63
2023/04/02 05:20:26;;;;;;;3.67;2.10;;;9.20;97.20;;;;;;1708211;28;20692;-63
2023/04/02 05:21:23;;;;;;;2.65;2.22;;;9.20;97.20;;;;;;1708001;28;20230;-63
2023/04/02 05:22:24;;;;;;;2.85;2.40;;;9.20;97.20;;;;;;1708086;29;20203;-63
2023/04/02 05:23:21;;;;;;;2.50;2.30;;;9.20;97.20;;;;;;1708156;29;20198;-62
2023/04/02 05:24:40;;;;;;;2.53;2.33;;;9.20;97.20;;;;;;1708241;29;20214;-64
2023/04/02 05:25:32;;;;;;;2.60;2.40;;;9.30;97.20;;;;;;1699188;28;20204;-63
2023/04/02 05:26:27;;;;;;;2.35;2.15;;;9.30;97.20;;;;;;1708285;29;20211;-63
2023/04/02 05:27:29;;;;;;;3.85;1.90;;;9.30;97.20;;;;;;1708220;29;20692;-63
2023/04/02 05:28:29;;;;;;;2.80;2.08;;;9.30;97.20;;;;;;1708311;29;20213;-63
2023/04/02 05:29:26;;;;;;;2.47;2.25;;;9.30;97.20;;;;;;1708234;29;20699;-63
2023/04/02 05:32:20;;;;;;;3.17;2.22;;;9.30;97.20;;;;;;1709112;28;20192;-63
2023/04/02 05:33:19;;;;;;;3.53;2.45;;;9.30;97.20;;;;;;1708013;29;20223;-64
2023/04/02 05:34:23;;;;;;;3.17;2.45;;;9.30;97.20;;;;;;1708152;29;20217;-64
2023/04/02 05:35:17;;;;;;;3.50;2.35;;;9.30;97.20;;;;;;1708132;29;20210;-62
2023/04/02 05:36:11;;;;;;;3.13;2.40;;;9.30;97.20;;;;;;1708065;29;20202;-64
2023/04/02 05:38:51;;;;;;;1.50;1.30;;;9.40;97.20;;;;;;1708080;29;20213;-62
2023/04/02 05:41:37;;;;;;;1.90;1.48;;;9.40;97.20;;;;;;1700313;29;20714;-64
2023/04/02 05:44:21;;;;;;;3.28;1.50;;;9.40;97.20;;;;;;1712354;28;20248;-63
2023/04/02 05:45:23;;;;;;;1.48;1.38;;;9.30;97.20;;;;;;1708258;28;20692;-63
2023/04/02 05:46:18;;;;;;;1.70;1.20;;;9.30;97.20;;;;;;1708177;29;20797;-62
2023/04/02 05:47:13;;;;;;;1.92;1.13;;;9.30;97.20;;;;;;1711986;28;20574;-63
2023/04/02 05:48:14;;;;;;;2.95;1.30;;;9.30;97.20;;;;;;1714674;28;20249;-62
2023/04/02 05:49:12;;;;;;;2.15;1.40;;;9.30;97.20;;;;;;1714644;28;20194;-63
2023/04/02 05:50:19;;;;;;;2.67;1.52;;;9.30;97.20;;;;;;1714742;28;20202;-64
2023/04/02 05:51:16;;;;;;;4.20;1.35;;;9.30;97.20;;;;;;1714144;28;20210;-63
2023/04/02 05:52:12;;;;;;;1.42;1.30;;;9.30;97.20;;;;;;1708626;28;20196;-63
2023/04/02 05:53:09;;;;;;;2.25;1.30;;;9.30;97.20;;;;;;1707651;28;20258;-63
2023/04/02 05:54:04;;;;;;;1.92;1.17;;;9.30;97.20;;;;;;1708051;28;20628;-63
2023/04/02 05:55:01;;;;;;;15.95;2.10;;;9.30;97.20;;;;;;1708121;28;20669;-63
2023/04/02 05:55:56;;;;;;;2.75;1.33;;;9.30;97.20;;;;;;1714185;28;20672;-63
2023/04/02 05:56:51;;;;;;;1.80;1.20;;;9.30;97.20;;;;;;1714691;28;20217;-64
2023/04/02 05:57:47;;;;;;;2.38;1.50;;;9.30;97.20;;;;;;1714667;28;20256;-64
2023/04/02 05:58:42;;;;;;;2.22;1.23;;;9.30;97.20;;;;;;1714761;28;20206;-63
2023/04/02 05:59:37;;;;;;;1.60;1.50;;;9.40;97.20;;;;;;1714687;28;20280;-63
2023/04/02 06:00:46;;;;;;;1.40;1.30;;;9.40;97.20;;;;;;1714650;28;20310;-63
2023/04/02 06:01:44;;;;;;;1.63;1.42;;;9.40;97.20;;;;;;1714094;28;20219;-64
2023/04/02 06:02:38;;;;;;;2.35;1.52;;;9.40;97.20;;;;;;1714741;28;20653;-63
2023/04/02 06:03:39;;;;;;;1.50;1.20;;;9.40;97.20;;;;;;1714572;28;20204;-63
2023/04/02 06:04:36;;;;;;;2.53;1.40;;;9.40;97.20;;;;;;1714614;28;20214;-63
2023/04/02 06:05:34;;;;;;;1.52;1.40;;;9.40;97.20;;;;;;1714587;28;20212;-63
2023/04/02 06:06:41;;;;;;;1.77;1.48;;;9.40;97.20;;;;;;1714684;28;20579;-64
2023/04/02 06:07:41;;;;;;;3.97;1.40;;;9.40;97.20;;;;;;1714634;28;20205;-63
2023/04/02 06:08:37;;;;;;;6.10;1.50;;;9.40;97.20;;;;;;1714530;28;20209;-63
2023/04/02 06:09:37;;;;;;;5.38;1.70;;;9.40;97.20;;;;;;1714786;28;20566;-64
2023/04/02 06:10:32;;;;;;;2.05;1.85;;;9.40;97.20;;;;;;1714567;28;20214;-62
2023/04/02 06:11:27;;;;;;;2.20;1.40;;;9.40;97.20;;;;;;1714465;28;20205;-63
2023/04/02 06:12:24;;;;;;;2.55;1.40;;;9.40;97.20;;;;;;1708477;28;20234;-63
2023/04/02 06:13:18;;;;;;;2.00;1.75;;;9.40;97.20;;;;;;1707577;28;20261;-63
2023/04/02 06:14:11;;;;;;;2.47;1.58;;;9.40;97.20;;;;;;1707851;28;20245;-63
2023/04/02 06:15:05;;;;;;;2.95;1.70;;;9.40;97.20;;;;;;1707984;28;20206;-63
2023/04/02 06:15:56;;;;;;;1.77;1.67;;;9.40;97.20;;;;;;1714394;28;20248;-63
2023/04/02 06:16:48;;;;;;;1.93;1.73;;;9.40;97.20;;;;;;1714079;28;20256;-63
2023/04/02 06:17:46;;;;;;;2.22;1.85;;;9.50;97.20;;;;;;1714107;28;20206;-63
2023/04/02 06:18:39;;;;;;;2.05;1.85;;;9.50;97.20;;;;;;1711591;28;20193;-62
2023/04/02 06:19:34;;;;;;;2.35;1.42;;;9.50;97.20;;;;;;1714014;28;20242;-63
2023/04/02 06:20:27;;;;;;;2.20;1.52;;;9.50;97.20;;;;;;1714050;28;20293;-63
2023/04/02 06:21:20;;;;;;;1.65;1.45;;;9.50;97.20;;;;;;1711797;28;20202;-64
2023/04/02 06:22:20;;;;;;;2.85;1.75;;;9.50;97.20;;;;;;1713305;28;20190;-63
2023/04/02 06:23:16;;;;;;;1.40;1.30;;;9.50;97.20;;;;;;1713813;28;20205;-63
2023/04/02 06:24:11;;;;;;;1.52;1.42;;;9.60;97.20;;;;;;1714053;28;20202;-63
2023/04/02 06:25:08;;;;;;;4.50;2.78;;;9.60;97.20;;;;;;1714193;28;20205;-63
2023/04/02 06:26:04;;;;;;;4.53;1.55;;;9.60;97.20;;;;;;1711869;28;20221;-64
2023/04/02 06:26:59;;;;;;;2.25;1.95;;;9.70;97.20;;;;;;1714127;28;20553;-63
2023/04/02 06:27:52;;;;;;;2.85;1.63;;;9.70;97.20;;;;;;1713997;28;20198;-63
2023/04/02 06:28:47;;;;;;;1.80;1.33;;;9.70;97.20;;;;;;1714119;28;20205;-63
2023/04/02 06:29:42;;;;;;;2.63;1.55;;;9.70;97.20;;;;;;1711731;28;20667;-64
2023/04/02 06:30:37;;;;;;;2.72;1.58;;;9.70;97.20;;;;;;1713839;28;20229;-63
2023/04/02 06:31:35;;;;;;;2.38;1.67;;;9.70;97.20;;;;;;1713884;28;20205;-63
2023/04/02 06:32:27;;;;;;;2.15;1.58;;;9.80;97.20;;;;;;1713879;28;20253;-63
2023/04/02 06:33:17;;;;;;;3.42;1.92;;;9.80;97.20;;;;;;1713682;28;20769;-64
2023/04/02 06:34:16;;;;;;;2.23;2.00;;;9.80;97.20;;;;;;1713797;28;20574;-63
2023/04/02 06:35:11;;;;;;;2.80;1.77;;;9.80;97.20;;;;;;1713909;28;20233;-63
2023/04/02 06:36:05;;;;;;;2.20;1.65;;;9.80;97.20;;;;;;1713996;28;20419;-63
2023/04/02 06:36:58;;;;;;;5.70;1.60;;;9.80;97.20;;;;;;1714126;28;20675;-63
2023/04/02 06:37:54;;;;;;;1.65;1.48;;;9.80;97.20;;;;;;1713969;28;20285;-63
2023/04/02 06:38:48;;;;;;;2.35;1.50;;;9.80;97.20;;;;;;1714095;28;20273;-63
2023/04/02 06:39:40;;;;;;;1.60;1.50;;;9.80;97.20;;;;;;1711595;28;20245;-63
2023/04/02 06:40:40;;;;;;;2.35;1.45;;;9.80;97.20;;;;;;1713725;28;20225;-63
2023/04/02 06:41:32;;;;;;;1.80;1.70;;;9.80;97.20;;;;;;1713766;28;20200;-62
2023/04/02 06:42:25;;;;;;;2.85;1.60;;;9.90;97.20;;;;;;1713508;28;20217;-64
2023/04/02 06:43:25;;;;;;;1.77;1.50;;;9.90;97.20;;;;;;1710957;28;20281;-64
2023/04/02 06:44:20;;;;;;;1.70;1.60;;;9.90;97.20;;;;;;1713897;28;20202;-63
2023/04/02 06:45:18;;;;;;;2.63;1.50;;;9.90;97.20;;;;;;1713934;28;20206;-63
2023/04/02 06:46:17;;;;;;;1.65;1.25;;;10.00;97.20;;;;;;1713754;28;20202;-63
2023/04/02 06:47:19;;;;;;;2.60;1.38;;;10.00;97.20;;;;;;1713969;28;20186;-63
2023/04/02 06:48:15;;;;;;;2.28;1.40;;;10.00;97.20;;;;;;1713840;28;20236;-63
2023/04/02 06:49:21;;;;;;;2.80;1.77;;;10.10;97.20;;;;;;1713860;28;20292;-63
2023/04/02 06:50:15;;;;;;;1.75;1.40;;;10.10;97.20;;;;;;1713150;28;20202;-63
2023/04/02 06:51:10;;;;;;;2.38;1.42;;;10.10;97.20;;;;;;1713900;28;20197;-63
2023/04/02 06:52:03;;;;;;;2.90;1.63;;;10.10;97.20;;;;;;1711023;28;20214;-63
2023/04/02 06:52:58;;;;;;;2.15;1.30;;;10.10;97.20;;;;;;1712276;28;20194;-63
2023/04/02 06:53:50;;;;;;;1.90;1.50;;;10.10;97.20;;;;;;1713748;28;20222;-63
2023/04/02 06:54:42;;;;;;;1.40;1.20;;;10.10;97.20;;;;;;1713917;28;20194;-63
2023/04/02 06:55:41;;;;;;;1.67;1.30;;;10.10;97.20;;;;;;1713238;28;20589;-64
2023/04/02 06:56:40;;;;;;;1.85;1.52;;;10.10;97.20;;;;;;1713536;28;20198;-63
2023/04/02 06:57:34;;;;;;;3.20;1.25;;;10.10;97.20;;;;;;1713722;28;20252;-63
2023/04/02 06:58:26;;;;;;;1.30;1.20;;;10.20;97.20;;;;;;1714301;28;20202;-63
2023/04/02 06:59:17;;;;;;;1.30;1.20;;;10.20;97.20;;;;;;1714156;28;20209;-63
2023/04/02 07:00:25;;;;;;;1.45;1.20;;;10.10;97.20;;;;;;1714193;28;20656;-63
2023/04/02 07:01:18;;;;;;;2.45;1.30;;;10.10;97.20;;;;;;1707625;29;20245;-63
2023/04/02 07:02:24;;;;;;;1.15;1.05;;;10.10;97.20;;;;;;1711021;28;20194;-63
2023/04/02 07:03:19;;;;;;;2.38;1.60;;;10.20;97.20;;;;;;1713932;28;20206;-63
2023/04/02 07:04:11;;;;;;;1.90;1.42;;;10.20;97.20;;;;;;1713945;28;20194;-63
2023/04/02 07:05:07;;;;;;;1.30;1.20;;;10.20;97.20;;;;;;1714315;28;20212;-63
2023/04/02 07:06:02;;;;;;;2.28;1.60;;;10.30;97.20;;;;;;1714365;28;20672;-63
2023/04/02 07:06:53;;;;;;;1.30;1.10;;;10.30;97.20;;;;;;1714173;28;20206;-63
2023/04/02 07:07:44;;;;;;;1.90;1.17;;;10.30;97.20;;;;;;1713997;28;20330;-63
2023/04/02 07:08:35;;;;;;;1.55;1.08;;;10.30;97.20;;;;;;1713465;28;20735;-63
2023/04/02 07:09:27;;;;;;;1.47;1.00;;;10.40;97.20;;;;;;1713784;28;20563;-63
2023/04/02 07:10:19;;;;;;;1.58;1.45;;;10.40;97.20;;;;;;1714095;28;20218;-63
2023/04/02 07:11:13;;;;;;;1.45;1.25;;;10.40;97.20;;;;;;1714152;28;20212;-63
2023/04/02 07:12:10;;;;;;;2.20;1.30;;;10.40;97.20;;;;;;1713511;28;20198;-62
2023/04/02 07:13:03;;;;;;;1.10;1.00;;;10.40;97.20;;;;;;1713958;28;20613;-64
2023/04/02 07:13:53;;;;;;;1.85;1.10;;;10.50;97.20;;;;;;1714094;28;20226;-63
2023/04/02 07:14:46;;;;;;;1.53;1.20;;;10.50;97.20;;;;;;1714198;28;20202;-63
2023/04/02 07:15:37;;;;;;;2.55;1.20;;;10.50;97.20;;;;;;1714119;28;20220;-63
2023/04/02 07:16:31;;;;;;;2.27;1.40;;;10.50;97.20;;;;;;1714115;28;20201;-63
2023/04/02 07:17:22;;;;;;;1.17;1.00;;;10.50;97.20;;;;;;1714232;28;20391;-63
2023/04/02 07:18:23;;;;;;;1.37;1.20;;;10.60;97.20;;;;;;1714117;28;20240;-63
2023/04/02 07:19:18;;;;;;;2.67;1.45;;;10.60;97.20;;;;;;1714297;28;20210;-63
2023/04/02 07:20:25;;;;;;;1.65;1.00;;;10.60;97.20;;;;;;1714149;28;20569;-63
2023/04/02 07:21:16;;;;;;;1.20;0.95;;;10.70;97.20;;;;;;1714169;28;20264;-63
2023/04/02 07:22:08;;;;;;;1.20;1.10;;;10.70;97.20;;;;;;1710706;28;20253;-63
2023/04/02 07:22:58;;;;;;;3.78;1.38;;;10.70;97.20;;;;;;1707268;28;20205;-63
2023/04/02 07:23:50;;;;;;;1.80;1.20;;;10.60;97.20;;;;;;1707519;28;20282;-65
2023/04/02 07:24:41;;;;;;;2.35;1.33;;;10.60;97.20;;;;;;1707569;28;20221;-62
2023/04/02 07:25:32;;;;;;;1.27;1.03;;;10.60;97.20;;;;;;1707505;28;20225;-63
2023/04/02 07:26:26;;;;;;;1.73;1.00;;;10.60;97.20;;;;;;1707550;28;20206;-63
2023/04/02 07:27:17;;;;;;;2.58;1.30;;;10.70;97.20;;;;;;1707568;28;20199;-63
2023/04/02 07:28:08;;;;;;;1.50;1.20;;;10.70;97.20;;;;;;1707396;28;20234;-63
2023/04/02 07:29:00;;;;;;;1.60;1.00;;;10.70;97.20;;;;;;1707529;28;20202;-63
2023/04/02 07:29:51;;;;;;;1.95;0.90;;;10.70;97.20;;;;;;1707501;28;20584;-63
2023/04/02 07:30:43;;;;;;;1.30;1.07;;;10.70;97.20;;;;;;1707473;28;20226;-62
2023/04/02 07:31:34;;;;;;;1.90;1.00;;;10.80;97.20;;;;;;1707418;28;20202;-63
2023/04/02 07:32:25;;;;;;;3.23;0.97;;;10.80;97.20;;;;;;1712613;28;20640;-63
2023/04/02 07:33:19;;;;;;;1.45;0.98;;;10.80;97.20;;;;;;1713732;28;20202;-63
2023/04/02 07:34:11;;;;;;;2.45;1.33;;;10.80;97.20;;;;;;1714004;28;20201;-63
2023/04/02 07:35:02;;;;;;;2.38;1.40;;;10.80;97.20;;;;;;1714221;28;20202;-63
2023/04/02 07:35:57;;;;;;;1.40;0.98;;;10.80;97.20;;;;;;1714062;28;20198;-63
2023/04/02 07:36:48;;;;;;;1.42;0.93;;;10.80;97.20;;;;;;1714117;28;20244;-63
2023/04/02 07:37:40;;;;;;;1.92;1.08;;;10.90;97.20;;;;;;1714019;28;20236;-63
2023/04/02 07:38:30;;;;;;;1.20;1.10;;;10.90;97.20;;;;;;1713947;28;20201;-63
2023/04/02 07:39:22;;;;;;;2.30;1.20;;;10.90;97.20;;;;;;1714040;28;20197;-63
2023/04/02 07:40:16;;;;;;;1.60;1.30;;;10.90;97.20;;;;;;1713916;28;20209;-62
2023/04/02 07:41:08;;;;;;;2.03;1.42;;;11.00;97.20;;;;;;1713959;28;20244;-63
2023/04/02 07:42:00;;;;;;;2.88;1.60;;;11.00;97.20;;;;;;1713376;28;20209;-63
2023/04/02 07:42:52;;;;;;;2.50;1.35;;;11.00;97.20;;;;;;1713780;28;20194;-63
2023/04/02 07:43:43;;;;;;;1.55;1.02;;;11.10;97.20;;;;;;1714064;28;20216;-64
2023/04/02 07:44:35;;;;;;;2.00;1.00;;;11.10;97.20;;;;;;1713903;28;20201;-64
2023/04/02 07:45:25;;;;;;;2.15;1.30;;;11.10;97.20;;;;;;1713999;28;20460;-63
2023/04/02 07:46:18;;;;;;;1.67;0.90;;;11.10;97.20;;;;;;1713994;28;20237;-63
2023/04/02 07:47:09;;;;;;;1.20;1.10;;;11.10;97.20;;;;;;1713935;28;20293;-63
2023/04/02 07:48:05;;;;;;;1.47;1.20;;;11.10;97.20;;;;;;1714084;28;20656;-63
2023/04/02 07:48:55;;;;;;;1.23;0.90;;;11.10;97.20;;;;;;1713991;28;20619;-63
2023/04/02 07:49:47;;;;;;;1.57;1.33;;;11.10;97.20;;;;;;1713959;28;20260;-63
2023/04/02 07:50:38;;;;;;;2.00;1.20;;;11.10;97.20;;;;;;1713883;28;20229;-63
2023/04/02 07:51:31;;;;;;;1.07;0.97;;;11.20;97.20;;;;;;1713943;28;20308;-64
2023/04/02 07:52:22;;;;;;;1.52;0.95;;;11.20;97.20;;;;;;1709261;28;20677;-62
2023/04/02 07:53:28;;;;;;;1.63;0.80;;;11.20;97.20;;;;;;1707105;28;20604;-63
2023/04/02 07:54:19;;;;;;;1.65;1.00;;;11.20;97.20;;;;;;1707301;28;20214;-63
2023/04/02 07:55:13;;;;;;;2.23;1.00;;;11.20;97.20;;;;;;1707392;28;20210;-63
2023/04/02 07:56:06;;;;;;;1.00;0.90;;;11.20;97.20;;;;;;1707310;28;20478;-63
2023/04/02 07:56:57;;;;;;;1.70;1.00;;;11.20;97.20;;;;;;1707342;28;20675;-63
2023/04/02 07:57:50;;;;;;;1.10;1.00;;;11.20;97.20;;;;;;1707324;28;20213;-63
2023/04/02 07:58:42;;;;;;;2.03;1.30;;;11.20;97.20;;;;;;1707331;28;20728;-63
2023/04/02 07:59:33;;;;;;;1.52;0.90;;;11.20;97.20;;;;;;1707297;28;20287;-64
2023/04/02 08:00:26;;;;;;;1.90;1.00;;;11.20;97.20;;;;;;1707310;28;20222;-62
2023/04/02 08:01:22;;;;;;;1.80;1.40;;;11.20;97.20;;;;;;1707407;28;20210;-63
2023/04/02 08:02:19;;;;;;;1.00;0.90;;;11.20;97.20;;;;;;1710084;28;20266;-63
2023/04/02 08:03:12;;;;;;;1.20;1.10;;;11.20;97.20;;;;;;1713636;28;20259;-63
2023/04/02 08:04:06;;;;;;;1.08;0.80;;;11.30;97.20;;;;;;1713818;28;20198;-63
2023/04/02 08:04:57;;;;;;;1.90;1.20;;;11.30;97.20;;;;;;1713917;28;20205;-63
2023/04/02 08:05:53;;;;;;;1.67;0.73;;;11.30;97.20;;;;;;1713849;28;20213;-62
2023/04/02 08:06:46;;;;;;;1.70;1.08;;;11.30;97.20;;;;;;1713892;28;20228;-63
2023/04/02 08:07:38;;;;;;;1.40;0.90;;;11.30;97.20;;;;;;1713716;28;20260;-63
2023/04/02 08:08:29;;;;;;;1.73;0.77;;;11.30;97.20;;;;;;1713896;28;20285;-63
2023/04/02 08:09:21;;;;;;;1.70;1.10;;;11.30;97.20;;;;;;1713968;28;20206;-63
2023/04/02 08:10:12;;;;;;;1.95;1.38;;;11.30;97.20;;;;;;1713804;28;20732;-63
2023/04/02 08:11:04;;;;;;;2.03;1.03;;;11.30;97.20;;;;;;1713980;28;20601;-63
2023/04/02 08:11:54;;;;;;;2.60;1.08;;;11.30;97.20;;;;;;1713127;28;20202;-63
2023/04/02 08:12:46;;;;;;;1.97;1.10;;;11.30;97.20;;;;;;1706946;28;20202;-63
2023/04/02 08:13:37;;;;;;;1.30;0.88;;;11.30;97.20;;;;;;1707130;28;20454;-63
2023/04/02 08:14:29;;;;;;;1.10;0.93;;;11.30;97.20;;;;;;1707165;28;20210;-63
2023/04/02 08:15:20;;;;;;;1.00;0.90;;;11.30;97.20;;;;;;1707331;28;20210;-63
2023/04/02 08:16:12;;;;;;;1.87;1.03;;;11.30;97.20;;;;;;1707231;28;20203;-63
2023/04/02 08:17:03;;;;;;;1.83;1.10;;;11.30;97.20;;;;;;1707306;28;20447;-63
2023/04/02 08:17:54;;;;;;;1.63;0.90;;;11.30;97.20;;;;;;1707296;28;20209;-63
2023/04/02 08:18:46;;;;;;;1.70;0.90;;;11.30;97.20;;;;;;1707264;28;20210;-63
2023/04/02 08:19:38;;;;;;;3.00;1.20;;;11.30;97.20;;;;;;1707290;28;20243;-63
2023/04/02 08:20:29;;;;;;;3.15;1.10;;;11.30;97.20;;;;;;1707210;28;20237;-63
2023/04/02 08:21:20;;;;;;;1.77;1.20;;;11.30;97.20;;;;;;1707249;28;20293;-63
2023/04/02 08:22:13;;;;;;;1.60;1.23;;;11.30;97.20;;;;;;1709241;28;20454;-64
2023/04/02 08:23:05;;;;;;;1.50;1.40;;;11.30;97.20;;;;;;1713576;28;20201;-63
2023/04/02 08:23:56;;;;;;;1.80;1.05;;;11.30;97.20;;;;;;1713859;28;20209;-62
2023/04/02 08:24:48;;;;;;;1.40;1.10;;;11.30;97.20;;;;;;1713840;28;20285;-64
2023/04/02 08:25:38;;;;;;;1.13;1.02;;;11.20;97.20;;;;;;1714011;28;20668;-63
2023/04/02 08:26:31;;;;;;;1.73;1.10;;;11.20;97.20;;;;;;1713840;28;20660;-63
2023/04/02 08:27:21;;;;;;;1.35;1.25;;;11.20;97.20;;;;;;1713863;28;20216;-63
2023/04/02 08:28:13;;;;;;;1.10;1.00;;;11.20;97.20;;;;;;1713791;28;20229;-63
2023/04/02 08:29:04;;;;;;;1.33;1.20;;;11.30;97.20;;;;;;1713897;28;20202;-64
2023/04/02 08:29:55;;;;;;;1.60;1.20;;;11.30;97.20;;;;;;1713893;28;20204;-63
2023/04/02 08:30:47;;;;;;;1.58;1.30;;;11.30;97.20;;;;;;1713800;28;20614;-62
2023/04/02 08:31:39;;;;;;;1.90;1.70;;;11.30;97.20;;;;;;1713803;28;20197;-63
2023/04/02 08:32:30;;;;;;;3.20;2.13;;;11.30;97.20;;;;;;1708880;28;20198;-63
2023/04/02 08:33:22;;;;;;;2.77;1.97;;;11.40;97.20;;;;;;1706921;28;20202;-63
2023/04/02 08:34:13;;;;;;;2.40;1.60;;;11.40;97.20;;;;;;1707063;28;20261;-62
2023/04/02 08:35:05;;;;;;;1.60;1.10;;;11.40;97.20;;;;;;1707334;28;20270;-64
2023/04/02 08:35:56;;;;;;;1.13;1.00;;;11.40;97.20;;;;;;1707484;28;20238;-64
2023/04/02 08:36:47;;;;;;;2.00;1.23;;;11.40;97.20;;;;;;1707136;28;20210;-63
2023/04/02 08:37:40;;;;;;;1.40;0.98;;;11.50;97.20;;;;;;1707260;28;20684;-63
2023/04/02 08:38:32;;;;;;;1.23;0.93;;;11.50;97.20;;;;;;1711804;28;20236;-63
2023/04/02 08:39:28;;;;;;;1.25;0.95;;;11.50;97.20;;;;;;1713861;28;20256;-63
2023/04/02 08:40:24;;;;;;;1.63;1.52;;;11.60;97.20;;;;;;1713745;28;20253;-63
2023/04/02 08:41:21;;;;;;;2.03;1.92;;;11.60;97.20;;;;;;1713843;28;20216;-63
2023/04/02 08:42:23;;;;;;;3.15;2.08;;;11.70;97.20;;;;;;1713152;28;20306;-63
2023/04/02 08:43:36;;;;;;;1.70;1.38;;;11.70;97.20;;;;;;1713537;28;20563;-63
2023/04/02 08:44:41;;;;;;;1.55;1.45;;;11.80;97.20;;;;;;1713779;28;20568;-63
2023/04/02 08:45:45;;;;;;;1.27;1.10;;;11.80;97.20;;;;;;1713795;28;20281;-63
2023/04/02 08:46:44;;;;;;;1.35;1.25;;;11.90;97.20;;;;;;1713859;28;20205;-63
2023/04/02 08:47:36;;;;;;;1.75;1.30;;;11.90;97.20;;;;;;1713875;28;20767;-63
2023/04/02 08:48:32;;;;;;;1.23;1.13;;;11.90;97.20;;;;;;1713786;28;20202;-62
2023/04/02 08:49:29;;;;;;;1.52;1.10;;;11.90;97.20;;;;;;1713821;28;20214;-62
2023/04/02 08:50:29;;;;;;;1.25;1.15;;;11.90;97.20;;;;;;1713338;28;20734;-63
2023/04/02 08:51:23;;;;;;;1.20;1.02;;;12.00;97.20;;;;;;1713891;28;20213;-63
2023/04/02 08:52:22;;;;;;;1.23;1.08;;;12.10;97.20;;;;;;1713351;28;20194;-63
2023/04/02 08:53:18;;;;;;;1.67;0.90;;;12.10;97.20;;;;;;1713488;28;20234;-62
2023/04/02 08:54:24;;;;;;;1.95;0.90;;;12.20;97.20;;;;;;1713637;28;20289;-62
2023/04/02 08:55:22;;;;;;;1.60;1.23;;;12.20;97.20;;;;;;1713914;28;20210;-62
2023/04/02 08:56:18;;;;;;;2.92;0.90;;;12.30;97.20;;;;;;1713930;28;20202;-63
2023/04/02 08:57:17;;;;;;;1.00;0.90;;;12.30;97.20;;;;;;1713802;28;20225;-62
2023/04/02 08:58:21;;;;;;;2.38;0.98;;;12.30;97.20;;;;;;1713799;28;20202;-63
2023/04/02 08:59:23;;;;;;;1.42;0.98;;;12.40;97.20;;;;;;1713914;28;20210;-63
2023/04/02 09:00:28;;;;;;;1.15;1.00;;;12.40;97.20;;;;;;1713776;28;20202;-65
2023/04/02 09:01:33;;;;;;;2.20;1.27;;;12.40;97.20;;;;;;1713864;28;20276;-65
2023/04/02 09:02:30;;;;;;;1.40;1.15;;;12.40;97.20;;;;;;1710649;28;20335;-65
2023/04/02 09:03:28;;;;;;;1.55;1.10;;;12.50;97.20;;;;;;1706910;28;20748;-65
2023/04/02 09:04:22;;;;;;;1.02;0.93;;;12.50;97.20;;;;;;1707128;28;20462;-66
2023/04/02 09:05:18;;;;;;;1.98;1.20;;;12.60;97.20;;;;;;1707099;28;20202;-65
2023/04/02 09:06:12;;;;;;;1.80;1.10;;;12.60;97.20;;;;;;1707168;28;20568;-65
2023/04/02 09:07:04;;;;;;;1.20;1.10;;;12.60;97.20;;;;;;1707134;28;20232;-63
2023/04/02 09:07:57;;;;;;;1.52;1.33;;;12.70;97.20;;;;;;1707104;28;20206;-64
2023/04/02 09:08:52;;;;;;;1.33;1.23;;;12.70;97.20;;;;;;1707203;28;20281;-65
2023/04/02 09:09:47;;;;;;;1.25;1.00;;;12.70;97.20;;;;;;1707158;28;20235;-66
2023/04/02 09:10:44;;;;;;;1.00;0.80;;;12.70;97.20;;;;;;1707098;28;20254;-63
2023/04/02 09:11:46;;;;;;;1.35;1.00;;;12.70;97.20;;;;;;1707192;28;20213;-63
2023/04/02 09:12:37;;;;;;;1.10;0.90;;;12.70;97.20;;;;;;1710754;28;20600;-63
2023/04/02 09:13:30;;;;;;;1.10;1.00;;;12.70;97.20;;;;;;1713790;28;20690;-63
2023/04/02 09:14:30;;;;;;;3.63;1.10;;;12.70;97.20;;;;;;1713756;28;20456;-63
2023/04/02 09:15:28;;;;;;;3.75;0.90;;;12.70;97.20;;;;;;1713783;28;20268;-63
2023/04/02 09:16:21;;;;;;;4.00;1.13;;;12.60;97.20;;;;;;1713777;28;20660;-63
2023/04/02 09:17:18;;;;;;;1.63;0.80;;;12.60;97.20;;;;;;1713731;28;20233;-63
2023/04/02 09:18:14;;;;;;;1.48;1.00;;;12.60;97.20;;;;;;1713775;28;20209;-63
2023/04/02 09:19:17;;;;;;;1.60;1.30;;;12.60;97.20;;;;;;1714059;28;20281;-65
2023/04/02 09:20:16;;;;;;;1.27;1.10;;;12.60;97.20;;;;;;1714968;28;20206;-65
2023/04/02 09:21:27;;;;;;;1.15;1.05;;;12.70;97.20;;;;;;1714920;28;20194;-62
2023/04/02 09:22:21;;;;;;;1.33;1.20;;;12.80;97.20;;;;;;1713537;28;20206;-63
2023/04/02 09:23:17;;;;;;;1.00;0.90;;;12.90;97.20;;;;;;1708040;28;20657;-63
2023/04/02 09:24:11;;;;;;;2.65;0.93;;;12.90;97.20;;;;;;1708357;28;20206;-62
2023/04/02 09:25:11;;;;;;;1.30;0.80;;;13.00;97.20;;;;;;1708296;28;20202;-63
2023/04/02 09:26:09;;;;;;;1.40;0.90;;;13.00;97.20;;;;;;1708277;28;20203;-63
2023/04/02 09:27:02;;;;;;;1.33;1.17;;;13.10;97.20;;;;;;1708259;28;20198;-63
2023/04/02 09:27:55;;;;;;;1.60;1.50;;;13.10;97.20;;;;;;1708188;28;20575;-63
2023/04/02 09:28:46;;;;;;;1.63;1.00;;;13.20;97.20;;;;;;1708222;28;20206;-63
2023/04/02 09:29:41;;;;;;;1.10;1.00;;;13.30;97.20;;;;;;1708359;28;20210;-63
2023/04/02 09:30:47;;;;;;;2.13;1.00;;;13.30;97.20;;;;;;1708124;28;20321;-62
2023/04/02 09:31:41;;;;;;;1.30;0.90;;;13.40;97.20;;;;;;1708131;28;20595;-63
2023/04/02 09:32:48;;;;;;;1.38;1.02;;;13.50;97.20;;;;;;1710791;28;20735;-63
2023/04/02 09:33:48;;;;;;;1.30;1.13;;;13.50;97.20;;;;;;1714866;28;20213;-63
2023/04/02 09:34:38;;;;;;;2.58;0.90;;;13.50;97.20;;;;;;1714537;28;20656;-63
2023/04/02 09:35:32;;;;;;;2.03;0.73;;;13.60;97.20;;;;;;1714872;28;20202;-65
2023/04/02 09:36:32;;;;;;;0.82;0.80;;;13.70;97.20;;;;;;1714918;28;20206;-65
2023/04/02 09:37:24;;;;;;;2.25;1.50;;;13.70;97.20;;;;;;1715031;28;20635;-65
2023/04/02 09:38:20;;;;;;;0.98;0.90;;;13.80;97.20;;;;;;1714738;28;20209;-65
2023/04/02 09:39:18;;;;;;;1.70;1.10;;;13.80;97.20;;;;;;1714757;28;20293;-63
2023/04/02 09:40:18;;;;;;;1.17;1.08;;;13.80;97.20;;;;;;1714816;28;20202;-63
2023/04/02 09:41:19;;;;;;;1.35;1.00;;;13.90;97.20;;;;;;1714813;28;20197;-63
2023/04/02 09:42:29;;;;;;;0.90;0.80;;;13.90;97.20;;;;;;1714747;28;20237;-63
2023/04/02 09:43:23;;;;;;;0.90;0.68;;;13.90;97.20;;;;;;1707894;29;20206;-63
2023/04/02 09:44:22;;;;;;;1.20;0.90;;;13.90;97.20;;;;;;1708103;29;20206;-63
2023/04/02 09:45:19;;;;;;;1.20;0.90;;;13.90;97.20;;;;;;1708078;29;20254;-63
2023/04/02 09:46:17;;;;;;;1.45;1.00;;;13.90;97.20;;;;;;1708128;29;20203;-63
2023/04/02 09:47:25;;;;;;;1.27;0.80;;;13.90;97.20;;;;;;1708146;29;20210;-63
2023/04/02 09:48:23;;;;;;;1.83;0.88;;;13.80;97.20;;;;;;1708267;29;20226;-64
2023/04/02 09:49:17;;;;;;;1.65;1.55;;;13.80;97.20;;;;;;1708143;29;20210;-65
2023/04/02 09:50:27;;;;;;;4.45;1.15;;;13.80;97.20;;;;;;1708036;29;20736;-66
2023/04/02 09:51:21;;;;;;;1.50;1.00;;;13.70;97.20;;;;;;1708050;29;20198;-63
2023/04/02 09:52:25;;;;;;;1.17;1.00;;;13.60;97.20;;;;;;1707947;29;20230;-63
2023/04/02 09:53:29;;;;;;;2.17;1.08;;;13.60;97.20;;;;;;1707698;29;20286;-65
2023/04/02 09:54:21;;;;;;;2.10;0.90;;;13.50;97.20;;;;;;1707974;29;20207;-65
2023/04/02 09:55:26;;;;;;;2.45;0.90;;;13.50;97.20;;;;;;1707962;29;20206;-66
2023/04/02 09:56:18;;;;;;;1.20;0.80;;;13.50;97.20;;;;;;1708091;28;20548;-66
2023/04/02 09:57:22;;;;;;;1.33;1.10;;;13.50;97.20;;;;;;1707978;29;20297;-66
2023/04/02 09:58:14;;;;;;;2.08;1.00;;;13.50;97.20;;;;;;1707988;29;20305;-66